Time;durP1;ratioP1;P1;durP2;ratioP2;P2;SDS_P1;SDS_P2;PMS_P1;PMS_P2;Temp;Humidity;BMP_temperature;BMP_pressure;BME280_temperature;BME280_humidity;BME280_pressure;Samples;Min_cycle;Max_cycle;Signal;HPM_P1;HPM_P2
2022/04/07 00:03:11;;;;;;;8.9;12.8;;;;;;;7.7;75.5;97100;;;;
2022/04/07 00:14:11;;;;;;;7.7;12.2;;;;;;;7.9;74.8;97090;;;;
2022/04/07 00:24:11;;;;;;;7.7;12.2;;;;;;;8;74.5;97070;;;;
2022/04/07 00:34:11;;;;;;;7.7;12.2;;;;;;;7.9;75.1;97070;;;;
2022/04/07 00:45:11;;;;;;;12;17.3;;;;;;;7.9;75.5;97060;;;;
2022/04/07 00:56:11;;;;;;;12;17.3;;;;;;;8;75.8;97050;;;;
2022/04/07 01:07:11;;;;;;;12;17.3;;;;;;;8.3;74.7;97040;;;;
2022/04/07 01:18:11;;;;;;;9.7;12.4;;;;;;;8.7;72.5;97040;;;;
2022/04/07 01:29:11;;;;;;;9.7;12.4;;;;;;;8.9;72;97030;;;;
2022/04/07 01:40:11;;;;;;;5.7;9;;;;;;;9.5;70.5;97020;;;;
2022/04/07 01:50:11;;;;;;;5.7;9;;;;;;;9.8;69.6;97010;;;;
2022/04/07 02:01:11;;;;;;;5.7;9;;;;;;;10.1;67.3;97010;;;;
2022/04/07 02:12:11;;;;;;;5.8;10.5;;;;;;;9.8;68.1;97030;;;;
2022/04/07 02:23:11;;;;;;;5.8;10.5;;;;;;;9.2;69.9;97020;;;;
2022/04/07 02:33:11;;;;;;;5.8;10.5;;;;;;;8.8;70.9;97040;;;;
2022/04/07 02:44:11;;;;;;;13.5;16.5;;;;;;;8.5;71.2;97040;;;;
2022/04/07 02:54:11;;;;;;;13.5;16.5;;;;;;;8.4;71.8;97040;;;;
2022/04/07 03:04:11;;;;;;;13.5;16.5;;;;;;;8.2;73;97040;;;;
2022/04/07 03:15:11;;;;;;;17;20.5;;;;;;;8.3;73.6;97030;;;;
2022/04/07 03:26:11;;;;;;;17;20.5;;;;;;;8.4;73.1;97030;;;;
2022/04/07 03:36:11;;;;;;;17;20.5;;;;;;;8.4;72.4;97040;;;;
2022/04/07 03:47:11;;;;;;;14.3;18.7;;;;;;;8.6;72.3;97020;;;;
2022/04/07 03:57:11;;;;;;;14.3;18.7;;;;;;;9.1;70.8;97020;;;;
2022/04/07 04:08:11;;;;;;;14.3;18.7;;;;;;;9.2;71.3;97020;;;;
2022/04/07 04:19:11;;;;;;;11.9;15.2;;;;;;;9.3;71.2;97020;;;;
2022/04/07 04:29:11;;;;;;;11.9;15.2;;;;;;;9.3;71.1;97030;;;;
2022/04/07 04:40:11;;;;;;;17.6;22.7;;;;;;;9.4;71.5;97030;;;;
2022/04/07 04:50:13;;;;;;;17.6;22.7;;;;;;;9.4;71.6;97030;;;;
2022/04/07 05:01:11;;;;;;;17.6;22.7;;;;;;;9.3;72.5;97030;;;;
2022/04/07 05:12:11;;;;;;;12.9;16.8;;;;;;;10.3;67.2;97020;;;;
2022/04/07 05:22:11;;;;;;;12.9;16.8;;;;;;;10.9;66;97020;;;;
2022/04/07 05:32:11;;;;;;;12.9;16.8;;;;;;;11.2;65.5;97030;;;;
2022/04/07 05:42:11;;;;;;;5.4;8.2;;;;;;;11.4;65.1;97020;;;;
2022/04/07 05:52:11;;;;;;;5.4;8.2;;;;;;;11.5;66.2;97010;;;;
2022/04/07 06:03:11;;;;;;;5.4;8.2;;;;;;;11.6;65.8;96980;;;;
2022/04/07 06:13:11;;;;;;;4;5.8;;;;;;;11.6;66.2;96980;;;;
2022/04/07 06:24:13;;;;;;;4;5.8;;;;;;;11.7;65.7;96970;;;;
2022/04/07 06:34:11;;;;;;;4;5.8;;;;;;;12.1;65.2;96980;;;;
2022/04/07 06:44:11;;;;;;;3.9;6;;;;;;;12.7;63.7;96970;;;;
2022/04/07 06:55:11;;;;;;;3.9;6;;;;;;;13.5;61.4;96960;;;;
2022/04/07 07:06:11;;;;;;;3.9;6;;;;;;;14.1;59.2;96960;;;;
2022/04/07 07:17:12;;;;;;;2.3;4.2;;;;;;;14.6;55.7;96960;;;;
2022/04/07 07:28:11;;;;;;;2.3;4.2;;;;;;;15;54.2;96960;;;;
2022/04/07 07:38:11;;;;;;;2.3;4.2;;;;;;;14.7;54.5;96960;;;;
2022/04/07 07:48:12;;;;;;;1.7;3.4;;;;;;;14.8;54.5;96960;;;;
2022/04/07 07:58:11;;;;;;;1.7;3.4;;;;;;;15.4;53.5;96950;;;;
2022/04/07 08:09:13;;;;;;;1.4;4.2;;;;;;;16.2;50.1;96960;;;;
2022/04/07 08:20:11;;;;;;;1.4;4.2;;;;;;;15.6;49.9;96960;;;;
2022/04/07 08:31:11;;;;;;;1.4;4.2;;;;;;;15.8;50.6;96970;;;;
2022/04/07 08:41:12;;;;;;;1.3;3.8;;;;;;;15.7;50.9;96960;;;;
2022/04/07 08:51:11;;;;;;;1.3;3.8;;;;;;;15.9;51.2;96950;;;;
2022/04/07 09:02:11;;;;;;;1.3;3.8;;;;;;;16;50.3;96940;;;;
2022/04/07 09:13:12;;;;;;;1.3;2.7;;;;;;;16.6;48.6;96940;;;;
2022/04/07 09:23:11;;;;;;;1.3;2.7;;;;;;;16.9;48.8;96930;;;;
2022/04/07 09:34:11;;;;;;;1.3;2.7;;;;;;;17.2;48.4;96910;;;;
2022/04/07 09:44:11;;;;;;;1.6;4.3;;;;;;;17.5;48.2;96880;;;;
2022/04/07 09:54:11;;;;;;;1.6;4.3;;;;;;;17.4;47.8;96870;;;;
2022/04/07 10:05:11;;;;;;;1.6;4.3;;;;;;;17.6;48.5;96870;;;;
2022/04/07 10:16:11;;;;;;;1.6;3.6;;;;;;;17.7;49.3;96850;;;;
2022/04/07 10:26:11;;;;;;;1.6;3.6;;;;;;;17.5;48;96830;;;;
2022/04/07 10:37:11;;;;;;;1.6;3.6;;;;;;;17.8;47.4;96810;;;;
2022/04/07 10:48:11;;;;;;;1.8;5.3;;;;;;;18.3;48.5;96790;;;;
2022/04/07 10:58:11;;;;;;;1.8;5.3;;;;;;;18.3;47.8;96770;;;;
2022/04/07 11:08:12;;;;;;;1.8;5.3;;;;;;;18.6;47.9;96740;;;;
2022/04/07 11:18:11;;;;;;;1.8;3.9;;;;;;;18;45.2;96740;;;;
2022/04/07 11:29:11;;;;;;;1.8;3.9;;;;;;;18;44.6;96740;;;;
2022/04/07 11:39:13;;;;;;;1.3;2.4;;;;;;;18.3;45.7;96740;;;;
2022/04/07 11:50:11;;;;;;;1.3;2.4;;;;;;;18.2;44.2;96720;;;;
2022/04/07 12:00:11;;;;;;;1.3;2.4;;;;;;;18.2;44.6;96700;;;;
2022/04/07 12:11:11;;;;;;;1;2.2;;;;;;;18.4;43.6;96700;;;;
2022/04/07 12:21:11;;;;;;;1;2.2;;;;;;;18.7;45;96670;;;;
2022/04/07 12:31:11;;;;;;;1;2.2;;;;;;;19.3;44.3;96650;;;;
2022/04/07 12:42:11;;;;;;;1.4;3.1;;;;;;;18.4;42.4;96630;;;;
2022/04/07 12:52:11;;;;;;;1.4;3.1;;;;;;;18.2;42.5;96620;;;;
2022/04/07 13:02:11;;;;;;;1.4;3.1;;;;;;;18.7;43.1;96600;;;;
2022/04/07 13:13:13;;;;;;;0.8;1.4;;;;;;;18.4;43.1;96560;;;;
2022/04/07 13:24:11;;;;;;;0.8;1.4;;;;;;;18.2;43.3;96550;;;;
2022/04/07 13:35:11;;;;;;;0.8;1.4;;;;;;;18.3;41.5;96520;;;;
2022/04/07 13:45:11;;;;;;;0.9;2.5;;;;;;;18.9;42.2;96520;;;;
2022/04/07 13:56:11;;;;;;;0.9;2.5;;;;;;;18.9;40.6;96500;;;;
2022/04/07 14:07:11;;;;;;;0.9;2.5;;;;;;;18.7;41.8;96480;;;;
2022/04/07 14:17:11;;;;;;;1;3;;;;;;;19;41.5;96440;;;;
2022/04/07 14:28:12;;;;;;;1;3;;;;;;;18.8;41.8;96410;;;;
2022/04/07 14:39:12;;;;;;;1.1;2.7;;;;;;;18.8;41.3;96390;;;;
2022/04/07 14:50:11;;;;;;;1.1;2.7;;;;;;;18.9;41;96360;;;;
2022/04/07 15:01:11;;;;;;;1.1;2.7;;;;;;;19.3;39.8;96340;;;;
2022/04/07 15:11:11;;;;;;;0.9;2.6;;;;;;;20.4;37.2;96350;;;;
2022/04/07 15:22:11;;;;;;;0.9;2.6;;;;;;;21;34.5;96340;;;;
2022/04/07 15:33:11;;;;;;;0.9;2.6;;;;;;;20.4;36.4;96360;;;;
2022/04/07 15:43:11;;;;;;;0.9;2.3;;;;;;;19.3;37.1;96350;;;;
2022/04/07 15:54:12;;;;;;;0.9;2.3;;;;;;;18;39.2;96350;;;;
2022/04/07 16:05:11;;;;;;;0.9;2.3;;;;;;;18.3;39.5;96340;;;;
2022/04/07 16:15:12;;;;;;;1.3;3.4;;;;;;;18;40.5;96340;;;;
2022/04/07 16:26:11;;;;;;;1.3;3.4;;;;;;;17.4;42.2;96330;;;;
2022/04/07 16:37:11;;;;;;;1.3;3.4;;;;;;;16.6;43.5;96320;;;;
2022/04/07 16:47:11;;;;;;;1.8;4.3;;;;;;;16;45.2;96310;;;;
2022/04/07 16:58:11;;;;;;;1.8;4.3;;;;;;;15.5;46.1;96300;;;;
2022/04/07 17:08:12;;;;;;;1.8;4.3;;;;;;;15.2;46.6;96290;;;;
2022/04/07 17:19:11;;;;;;;1.7;4.3;;;;;;;15.1;47.4;96300;;;;
2022/04/07 17:29:11;;;;;;;1.7;4.3;;;;;;;14.8;47.4;96320;;;;
2022/04/07 17:40:11;;;;;;;3.6;6.9;;;;;;;14.7;47.5;96320;;;;
2022/04/07 17:51:11;;;;;;;3.6;6.9;;;;;;;14.6;48.2;96320;;;;
2022/04/07 18:01:11;;;;;;;3.6;6.9;;;;;;;14.4;48.6;96320;;;;
2022/04/07 18:12:11;;;;;;;4.5;7.1;;;;;;;14.2;49.8;96320;;;;
2022/04/07 18:22:12;;;;;;;4.5;7.1;;;;;;;14.3;49.5;96320;;;;
2022/04/07 18:33:12;;;;;;;4.5;7.1;;;;;;;14.4;49.1;96320;;;;
2022/04/07 18:44:12;;;;;;;2.9;6.2;;;;;;;14.7;48.2;96310;;;;
2022/04/07 18:55:12;;;;;;;2.9;6.2;;;;;;;14.8;47.9;96300;;;;
2022/04/07 19:05:12;;;;;;;2.9;6.2;;;;;;;14.7;48.4;96300;;;;
2022/04/07 19:15:11;;;;;;;2.5;4.4;;;;;;;14.6;48.5;96260;;;;
2022/04/07 19:25:11;;;;;;;2.5;4.4;;;;;;;14.4;49.3;96270;;;;
2022/04/07 19:35:11;;;;;;;2.5;4.4;;;;;;;14.2;49;96250;;;;
2022/04/07 19:46:12;;;;;;;2.2;4.9;;;;;;;14.1;49.5;96240;;;;
2022/04/07 19:57:12;;;;;;;2.2;4.9;;;;;;;14.2;49.3;96230;;;;
2022/04/07 20:08:12;;;;;;;2.2;4.9;;;;;;;14.4;48.9;96230;;;;
2022/04/07 20:19:14;;;;;;;1.9;4.1;;;;;;;14.3;49.2;96230;;;;
2022/04/07 20:30:12;;;;;;;1.9;4.1;;;;;;;14.2;49.4;96220;;;;
2022/04/07 20:40:12;;;;;;;1.6;3.6;;;;;;;14.2;49.4;96220;;;;
2022/04/07 20:51:12;;;;;;;1.6;3.6;;;;;;;14.2;49;96220;;;;
2022/04/07 21:02:12;;;;;;;1.6;3.6;;;;;;;14.5;49;96210;;;;
2022/04/07 21:13:12;;;;;;;1.7;3.8;;;;;;;14.6;48.8;96210;;;;
2022/04/07 21:23:12;;;;;;;1.7;3.8;;;;;;;14.3;49.4;96180;;;;
2022/04/07 21:34:12;;;;;;;1.7;3.8;;;;;;;14.2;50;96210;;;;
2022/04/07 21:45:12;;;;;;;0.9;2.9;;;;;;;14.1;50.3;96230;;;;
2022/04/07 21:56:13;;;;;;;0.9;2.9;;;;;;;13.9;51.2;96240;;;;
2022/04/07 22:06:12;;;;;;;0.9;2.9;;;;;;;13.8;51.7;96250;;;;
2022/04/07 22:17:12;;;;;;;0.6;1.8;;;;;;;13.8;53.1;96250;;;;
2022/04/07 22:28:12;;;;;;;0.6;1.8;;;;;;;13.8;53.8;96250;;;;
2022/04/07 22:38:12;;;;;;;0.6;1.8;;;;;;;13.5;56.6;96260;;;;
2022/04/07 22:48:12;;;;;;;0.7;2.1;;;;;;;13.2;58;96270;;;;
2022/04/07 22:59:12;;;;;;;0.7;2.1;;;;;;;13;59.1;96260;;;;
2022/04/07 23:09:12;;;;;;;0.6;1.7;;;;;;;12.8;60.6;96250;;;;
2022/04/07 23:19:16;;;;;;;0.6;1.7;;;;;;;12.7;61.8;96260;;;;
2022/04/07 23:29:12;;;;;;;0.6;1.7;;;;;;;12.6;62.5;96230;;;;
2022/04/07 23:40:12;;;;;;;0.5;1.2;;;;;;;12.5;62.7;96210;;;;
2022/04/07 23:51:12;;;;;;;0.5;1.2;;;;;;;12.4;62.7;96240;;;;
